Data for 07/21/2009

Time Sea-Level Adjusted Pressure Absolute Pressure Temperature Relative Humidity Dew Point   
(mb) (inHg) (mb) (inHg) (C) (F) (%) (C) (F)
00:05 1023 30.21 852 25.16 17.7 63.9 47 6.3 43.3
00:10 1023 30.21 852 25.16 17.7 63.9 47 6.2 43.2
00:15 1022 30.18 852 25.16 17.6 63.7 46 6.1 43
00:20 1023 30.21 852 25.16 17.6 63.7 47 6.2 43.1
00:25 1022 30.18 852 25.16 17.5 63.6 47 6.2 43.2
00:30 1022 30.18 852 25.16 17.5 63.6 47 6.3 43.3
00:35 1022 30.18 852 25.16 17.5 63.5 47 6.2 43.2
00:40 1022 30.18 852 25.16 17.5 63.5 47 6.2 43.2
00:45 1022 30.18 852 25.16 17.4 63.4 47 6.2 43.1
00:50 1022 30.18 852 25.16 17.4 63.3 47 6.1 43
00:55 1022 30.18 852 25.16 17.4 63.2 48 6.3 43.3
01:00 1022 30.18 852 25.16 17.3 63.1 48 6.2 43.2
01:05 1022 30.18 852 25.16 17.3 63.1 48 6.3 43.4
01:10 1022 30.18 852 25.16 17.2 63 48 6.2 43.2
01:15 1022 30.18 851 25.13 17.3 63.2 48 6.3 43.3
01:20 1022 30.18 852 25.16 17.3 63.1 48 6.3 43.4
01:25 1022 30.18 851 25.13 17.2 63 49 6.4 43.6
01:30 1022 30.18 851 25.13 17.2 62.9 49 6.4 43.6
01:35 1022 30.18 851 25.13 17.2 62.9 49 6.4 43.5
01:40 1022 30.18 851 25.13 17.1 62.7 50 6.6 43.8
01:45 1022 30.18 851 25.13 16.9 62.5 49 6.4 43.4
01:50 1022 30.18 851 25.13 17 62.6 49 6.4 43.5
01:55 1022 30.18 851 25.13 17 62.6 50 6.5 43.6
02:00 1022 30.18 851 25.13 17 62.6 49 6.4 43.5
02:05 1022 30.18 851 25.13 17 62.5 49 6.4 43.6
02:10 1022 30.18 851 25.13 16.8 62.2 50 6.5 43.6
02:15 1022 30.18 851 25.13 16.6 62 51 6.5 43.7
02:20 1022 30.18 851 25.13 16.5 61.7 51 6.5 43.6
02:25 1022 30.18 851 25.13 16.4 61.5 51 6.5 43.6
02:30 1022 30.18 851 25.13 16.3 61.3 52 6.5 43.6
02:35 1022 30.18 851 25.13 16.3 61.3 52 6.5 43.7
02:40 1022 30.18 851 25.13 16.3 61.3 52 6.5 43.7
02:45 1022 30.18 851 25.13 16.2 61.1 52 6.5 43.7
02:50 1022 30.18 851 25.13 16.1 61 53 6.5 43.8
02:55 1022 30.18 851 25.13 15.9 60.7 54 6.6 43.9
03:00 1022 30.18 851 25.13 15.8 60.4 54 6.5 43.8
03:05 1022 30.18 851 25.13 15.9 60.6 53 6.5 43.7
03:10 1022 30.18 851 25.13 15.8 60.4 54 6.6 43.8
03:15 1022 30.18 851 25.13 15.7 60.2 54 6.5 43.7
03:20 1022 30.18 851 25.13 15.6 60.2 54 6.5 43.8
03:25 1022 30.18 851 25.13 15.6 60 55 6.5 43.8
03:30 1022 30.18 851 25.13 15.5 59.9 55 6.5 43.8
03:35 1022 30.18 851 25.13 15.4 59.7 55 6.5 43.7
03:40 1022 30.18 851 25.13 15.3 59.6 55 6.5 43.7
03:45 1022 30.18 851 25.13 15.3 59.6 55 6.4 43.5
03:50 1022 30.18 851 25.13 15.3 59.5 55 6.4 43.6
03:55 1022 30.18 851 25.13 15.2 59.3 56 6.5 43.7
04:00 1022 30.18 851 25.13 15.1 59.1 56 6.5 43.7
04:05 1022 30.18 851 25.13 15 59 56 6.5 43.7
04:10 1022 30.18 851 25.13 14.9 58.8 57 6.5 43.6
04:15 1022 30.18 851 25.13 14.9 58.7 57 6.5 43.7
04:20 1022 30.18 851 25.13 14.8 58.6 57 6.5 43.7
04:25 1022 30.18 851 25.13 14.7 58.4 58 6.5 43.7
04:30 1022 30.18 851 25.13 14.6 58.4 58 6.4 43.6
04:35 1022 30.18 851 25.13 14.7 58.4 58 6.4 43.6
04:40 1022 30.18 851 25.13 14.6 58.3 58 6.4 43.5
04:45 1022 30.18 851 25.13 14.6 58.2 58 6.5 43.7
04:50 1022 30.18 851 25.13 14.5 58.1 58 6.4 43.6
04:55 1022 30.18 851 25.13 14.5 58.1 58 6.5 43.6
05:00 1022 30.18 851 25.13 14.4 58 58 6.4 43.6
05:05 1022 30.18 851 25.13 14.4 57.9 59 6.4 43.6
05:10 1022 30.18 851 25.13 14.3 57.8 59 6.4 43.6
05:15 1022 30.18 851 25.13 14.3 57.7 59 6.4 43.6
05:20 1022 30.18 851 25.13 14.2 57.6 59 6.4 43.5
05:25 1022 30.18 851 25.13 14.2 57.5 59 6.4 43.6
05:30 1022 30.18 851 25.13 14.1 57.5 59 6.4 43.5
05:35 1022 30.18 851 25.13 14.2 57.5 59 6.4 43.5
05:40 1022 30.18 851 25.13 14.1 57.3 60 6.5 43.8
05:45 1022 30.18 851 25.13 13.9 56.9 61 6.5 43.7
05:50 1022 30.18 851 25.13 13.7 56.7 61 6.5 43.7
05:55 1022 30.18 851 25.13 13.8 56.8 61 6.4 43.5
06:00 1022 30.18 851 25.13 13.8 56.8 61 6.5 43.7
06:05 1022 30.18 851 25.13 13.7 56.6 61 6.5 43.6
06:10 1022 30.18 851 25.13 13.5 56.4 62 6.4 43.5
06:15 1022 30.18 851 25.13 13.5 56.3 62 6.4 43.5
06:20 1022 30.18 851 25.13 13.4 56.2 62 6.4 43.5
06:25 1022 30.18 851 25.13 13.4 56 63 6.4 43.6
06:30 1022 30.18 851 25.13 13.3 56 63 6.4 43.5
06:35 1022 30.18 852 25.16 13.3 55.9 63 6.5 43.6
06:40 1022 30.18 852 25.16 13.2 55.8 63 6.4 43.5
06:45 1022 30.18 852 25.16 13.1 55.5 63 6.3 43.3
06:50 1022 30.18 852 25.16 13.1 55.5 64 6.4 43.5
06:55 1022 30.18 852 25.16 12.9 55.1 64 6.3 43.3
07:00 1022 30.18 851 25.13 13.4 56.1 61 6.1 43
07:05 1022 30.18 851 25.13 14 57.2 60 6.4 43.4
07:10 1022 30.18 851 25.13 14.2 57.6 59 6.4 43.5
07:15 1022 30.18 851 25.13 14.4 57.9 59 6.5 43.7
07:20 1022 30.18 851 25.13 14.6 58.2 58 6.5 43.7
07:25 1022 30.18 851 25.13 14.8 58.6 58 6.6 43.9
07:30 1022 30.18 851 25.13 15 58.9 57 6.5 43.7
07:35 1022 30.18 851 25.13 15.3 59.5 56 6.6 43.9
07:40 1022 30.18 851 25.13 15.5 59.9 55 6.6 43.8
07:45 1022 30.18 851 25.13 15.8 60.4 54 6.6 43.8
07:50 1022 30.18 851 25.13 15.9 60.5 55 6.8 44.3
07:55 1022 30.18 851 25.13 16 60.9 53 6.6 43.9
08:00 1022 30.18 851 25.13 16.1 60.9 53 6.6 43.9
08:05 1022 30.18 851 25.13 16.2 61.2 53 6.6 43.9
08:10 1022 30.18 851 25.13 16.4 61.6 52 6.7 44
08:15 1022 30.18 851 25.13 16.6 61.8 53 7 44.5
08:20 1022 30.18 851 25.13 16.4 61.6 52 6.7 44.1
08:25 1022 30.18 851 25.13 16.4 61.4 54 7.1 44.7
08:30 1022 30.18 851 25.13 16.4 61.4 53 6.8 44.2
08:35 1022 30.18 851 25.13 16.7 62 50 6.5 43.6
08:40 1022 30.18 851 25.13 17 62.5 51 6.7 44.1
08:45 1022 30.18 851 25.13 17.2 63 50 6.9 44.4
08:50 1022 30.18 851 25.13 17.6 63.6 49 6.9 44.4
08:55 1022 30.18 851 25.13 17.6 63.7 48 6.7 44
09:00 1022 30.18 851 25.13 18.3 65 46 6.8 44.2
09:05 1022 30.18 851 25.13 18.3 64.9 47 6.8 44.3
09:10 1022 30.18 851 25.13 18.5 65.3 46 6.8 44.3
09:15 1022 30.18 851 25.13 18.4 65.2 46 6.6 43.9
09:20 1022 30.18 851 25.13 18.5 65.3 46 6.7 44.1
09:25 1022 30.18 851 25.13 18.8 65.8 45 6.7 44
09:30 1022 30.18 851 25.13 19.5 67 45 7.4 45.3
09:35 1022 30.18 851 25.13 19 66.2 47 7.7 45.9
09:40 1022 30.18 851 25.13 18.9 65.9 45 6.9 44.5
09:45 1022 30.18 851 25.13 18.7 65.7 44 6.3 43.4
09:50 1022 30.18 851 25.13 18.6 65.5 45 6.7 44.1
09:55 1022 30.18 851 25.13 19.6 67.2 43 6.9 44.4
10:00 1022 30.18 851 25.13 19.7 67.5 43 6.8 44.3
10:05 1022 30.18 851 25.13 20.6 69.1 42 7.4 45.3
10:10 1022 30.18 851 25.13 20.1 68.2 44 7.6 45.6
10:15 1022 30.18 851 25.13 19.9 67.8 41 6.4 43.6
10:20 1022 30.18 851 25.13 20.6 69 41 7.1 44.9
10:25 1022 30.18 851 25.13 20.6 69 43 7.8 46.1
10:30 1022 30.18 851 25.13 19.8 67.6 45 7.6 45.6
10:35 1022 30.18 851 25.13 20 68.1 43 7.1 44.8
10:40 1022 30.18 851 25.13 20.1 68.3 45 8.1 46.5
10:45 1022 30.18 851 25.13 19.3 66.8 45 7.3 45.2
10:50 1022 30.18 851 25.13 19.3 66.8 46 7.5 45.6
10:55 1022 30.18 851 25.13 20.4 68.6 42 7.3 45.2
11:00 1022 30.18 851 25.13 21.1 70 40 7.2 45
11:05 1022 30.18 851 25.13 21.7 71 38 7.1 44.8
11:10 1022 30.18 851 25.13 21.6 71 39 7.4 45.4
11:15 1022 30.18 851 25.13 21.1 70 39 7 44.5
11:20 1022 30.18 851 25.13 21.3 70.3 39 6.9 44.5
11:25 1022 30.18 851 25.13 21.9 71.4 39 7.4 45.3
11:30 1022 30.18 851 25.13 22.4 72.3 37 7 44.7
11:35 1022 30.18 851 25.13 22.6 72.7 37 7.3 45.1
11:40 1022 30.18 851 25.13 22.2 72 36 6.7 44.1
11:45 1022 30.18 851 25.13 21.3 70.4 38 6.6 43.8
11:50 1022 30.18 851 25.13 21.5 70.6 37 6.4 43.6
11:55 1022 30.18 851 25.13 21.5 70.7 40 7.4 45.3
12:00 1022 30.18 851 25.13 21.4 70.5 39 7 44.7
12:05 1022 30.18 851 25.13 22.6 72.7 35 6.5 43.7
12:10 1022 30.18 851 25.13 23.4 74 34 6.8 44.2
12:15 1022 30.18 851 25.13 23.6 74.5 33 6.7 44.1
12:20 1021 30.15 851 25.13 24 75.2 33 6.9 44.4
12:25 1021 30.15 851 25.13 23 73.4 35 6.7 44.1
12:30 1021 30.15 851 25.13 22.8 73 34 6.4 43.4
12:35 1021 30.15 851 25.13 23.6 74.4 32 6.3 43.3
12:40 1021 30.15 851 25.13 24.9 76.8 30 6.2 43.2
12:45 1022 30.18 851 25.13 23.7 74.7 33 6.8 44.2
12:50 1021 30.15 851 25.13 23.6 74.4 33 6.5 43.8
12:55 1021 30.15 851 25.13 23.6 74.4 33 6.5 43.6
13:00 1021 30.15 851 25.13 23.6 74.5 33 6.5 43.7
13:05 1021 30.15 851 25.13 24.2 75.5 32 6.5 43.7
13:10 1021 30.15 850 25.1 24.3 75.7 31 6.2 43.2
13:15 1021 30.15 850 25.1 25.1 77.1 31 6.9 44.4
13:20 1021 30.15 850 25.1 24.8 76.6 32 7.4 45.3
13:25 1021 30.15 850 25.1 24.8 76.6 30 6.5 43.7
13:30 1021 30.15 850 25.1 25.7 78.3 30 6.9 44.4
13:35 1021 30.15 850 25.1 25.4 77.8 30 6.7 44.1
13:40 1021 30.15 850 25.1 26 78.9 28 6.3 43.3
13:45 1021 30.15 850 25.1 26.7 80.1 27 6.3 43.4
13:50 1021 30.15 850 25.1 26.3 79.4 28 6.7 44
13:55 1021 30.15 850 25.1 25.1 77.3 27 5.1 41.2
14:00 1021 30.15 850 25.1 25.9 78.7 28 6.1 42.9
14:05 1021 30.15 850 25.1 26 78.8 29 6.7 44
14:10 1021 30.15 850 25.1 25.4 77.7 27 5.4 41.7
14:15 1021 30.15 850 25.1 25.5 77.9 26 4.9 40.9
14:20 1021 30.15 850 25.1 26.3 79.4 28 6.6 43.8
14:25 1021 30.15 850 25.1 26.5 79.7 29 7.2 45
14:30 1021 30.15 850 25.1 26.9 80.4 25 5.3 41.5
14:35 1021 30.15 850 25.1 26.5 79.6 25 5.3 41.5
14:40 1021 30.15 850 25.1 26.6 79.9 25 5.2 41.4
14:45 1021 30.15 850 25.1 27 80.6 22 3.5 38.3
14:50 1021 30.15 850 25.1 27.4 81.4 20 2.9 37.2
14:55 1020 30.12 850 25.1 27.9 82.1 18 1.8 35.3
15:00 1020 30.12 850 25.1 28 82.3 21 4.1 39.3
15:05 1020 30.12 850 25.1 28.4 83 21 4.2 39.6
15:10 1020 30.12 849 25.07 28.1 82.5 18 1.7 35.1
15:15 1020 30.12 849 25.07 28.4 83 14 -1 30.1
15:20 1020 30.12 849 25.07 28.9 84.1 15 -0.3 31.5
15:25 1020 30.12 849 25.07 28.9 84.1 15 -0.4 31.3
15:30 1020 30.12 849 25.07 28.8 83.9 14 -0.7 30.8
15:35 1020 30.12 849 25.07 28.8 83.8 15 -0.1 31.9
15:40 1020 30.12 849 25.07 28.6 83.5 16 0.3 32.5
15:45 1020 30.12 849 25.07 28.6 83.5 18 2.1 35.7
15:50 1020 30.12 849 25.07 28.6 83.5 18 2 35.5
15:55 1020 30.12 849 25.07 27.9 82.3 20 2.9 37.1
16:00 1020 30.12 849 25.07 28.2 82.8 15 -0.6 30.9
16:05 1020 30.12 849 25.07 28.6 83.4 16 0.3 32.5
16:10 1020 30.12 849 25.07 28.9 84.1 15 0.3 32.5
16:15 1020 30.12 849 25.07 29 84.3 16 1.4 34.6
16:20 1020 30.12 849 25.07 29.2 84.6 14 -0.3 31.4
16:25 1020 30.12 849 25.07 29.2 84.6 15 0.6 33.1
16:30 1020 30.12 849 25.07 29.1 84.3 14 -0.5 31.1
16:35 1020 30.12 849 25.07 28.7 83.7 15 -0.5 31.2
16:40 1020 30.12 849 25.07 28.6 83.4 14 -0.9 30.4
16:45 1020 30.12 849 25.07 28.5 83.2 15 0 32
16:50 1020 30.12 849 25.07 28 82.4 17 0.8 33.4
16:55 1020 30.12 849 25.07 28.9 84 15 -0.1 31.8
17:00 1020 30.12 849 25.07 29.1 84.4 15 0.1 32.1
17:05 1020 30.12 849 25.07 28.7 83.6 15 -0.4 31.2
17:10 1020 30.12 849 25.07 28.9 84 14 -0.7 30.8
17:15 1020 30.12 849 25.07 28.5 83.2 15 -0.6 30.9
17:20 1020 30.12 849 25.07 28.7 83.7 15 -0.3 31.5
17:25 1020 30.12 849 25.07 28.9 84.1 15 0.2 32.3
17:30 1020 30.12 849 25.07 28.1 82.5 17 0.7 33.3
17:35 1020 30.12 849 25.07 27.2 81 16 -0.2 31.7
17:40 1020 30.12 849 25.07 27.6 81.8 15 -0.7 30.8
17:45 1020 30.12 849 25.07 27.7 81.9 15 -0.6 30.9
17:50 1020 30.12 849 25.07 28.3 82.9 17 0.9 33.6
17:55 1020 30.12 849 25.07 28.9 84 16 0.5 32.9
18:00 1020 30.12 849 25.07 28.4 83.1 17 1.3 34.3
18:05 1020 30.12 849 25.07 28.4 83.1 18 2.1 35.7
18:10 1020 30.12 849 25.07 28.7 83.7 16 0.7 33.2
18:15 1019 30.09 849 25.07 28.6 83.5 16 0.2 32.4
18:20 1019 30.09 849 25.07 27.9 82.2 18 1.5 34.7
18:25 1019 30.09 849 25.07 27.5 81.5 18 1.3 34.3
18:30 1019 30.09 849 25.07 28 82.4 17 1.2 34.2
18:35 1019 30.09 849 25.07 28.1 82.6 18 2 35.5
18:40 1019 30.09 849 25.07 28.6 83.4 16 0.5 32.9
18:45 1019 30.09 849 25.07 28.5 83.3 17 1.1 34
18:50 1019 30.09 848 25.04 28.4 83.2 17 1.3 34.4
18:55 1019 30.09 848 25.04 28 82.3 18 1.4 34.6
19:00 1019 30.09 848 25.04 27.3 81.2 18 1.2 34.2
19:05 1019 30.09 848 25.04 27.5 81.5 18 1.6 34.8
19:10 1019 30.09 848 25.04 27.1 80.8 18 1.4 34.5
19:15 1019 30.09 848 25.04 27.4 81.3 18 1.6 34.8
19:20 1019 30.09 848 25.04 27.2 80.9 19 1.7 35.1
19:25 1019 30.09 848 25.04 26.9 80.5 19 1.7 35
19:30 1019 30.09 848 25.04 26.5 79.7 19 1 33.8
19:35 1019 30.09 848 25.04 26.4 79.5 20 1.9 35.5
19:40 1019 30.09 848 25.04 26.4 79.4 19 1.4 34.5
19:45 1019 30.09 848 25.04 26.3 79.4 19 1.3 34.4
19:50 1019 30.09 848 25.04 26.3 79.4 20 1.9 35.4
19:55 1019 30.09 848 25.04 26.3 79.3 19 0.9 33.7
20:00 1019 30.09 848 25.04 26.3 79.3 19 1 33.9
20:05 1019 30.09 848 25.04 26.1 79 19 1.3 34.3
20:10 1019 30.09 848 25.04 26 78.7 20 1.9 35.3
20:15 1019 30.09 848 25.04 25.9 78.6 23 3.3 37.9
20:20 1019 30.09 848 25.04 25.8 78.4 23 3.6 38.5
20:25 1019 30.09 848 25.04 25.6 78.1 24 3.8 38.8
20:30 1019 30.09 848 25.04 25.5 77.9 25 4.1 39.4
20:35 1019 30.09 848 25.04 25.3 77.5 25 4.3 39.7
20:40 1019 30.09 848 25.04 24.9 76.9 30 6.2 43.1
20:45 1019 30.09 848 25.04 24.6 76.3 30 6.1 43
20:50 1019 30.09 848 25.04 24.3 75.8 33 7.5 45.5
20:55 1019 30.09 848 25.04 23.8 74.8 38 8.8 47.9
21:00 1019 30.09 848 25.04 22.9 73.2 38 8.1 46.5
21:05 1019 30.09 848 25.04 22.3 72.1 40 8.3 47
21:10 1019 30.09 848 25.04 21.8 71.3 39 7.5 45.6
21:15 1019 30.09 848 25.04 21.3 70.3 41 7.8 46
21:20 1019 30.09 849 25.07 20.7 69.3 42 7.4 45.2
21:25 1019 30.09 849 25.07 20.3 68.5 44 7.8 46
21:30 1019 30.09 849 25.07 20.1 68.1 41 6.6 43.9
21:35 1019 30.09 849 25.07 20.1 68.1 39 5.7 42.2
21:40 1019 30.09 849 25.07 20 68 36 4.6 40.2
21:45 1020 30.12 849 25.07 20.2 68.3 37 5 41
21:50 1020 30.12 849 25.07 19.9 67.8 38 5.4 41.8
21:55 1020 30.12 849 25.07 19.4 66.9 39 5.4 41.7
22:00 1020 30.12 849 25.07 19.2 66.5 40 5.6 42
22:05 1020 30.12 849 25.07 18.9 66 40 5.2 41.4
22:10 1020 30.12 849 25.07 18.9 65.9 40 5 41
22:15 1020 30.12 849 25.07 18.9 66.1 39 4.8 40.7
22:20 1020 30.12 849 25.07 18.9 65.9 39 4.6 40.3
22:25 1020 30.12 849 25.07 18.7 65.7 39 4.6 40.3
22:30 1020 30.12 849 25.07 18.5 65.4 39 4.5 40.1
22:35 1020 30.12 849 25.07 18.5 65.4 39 4.3 39.8
22:40 1020 30.12 849 25.07 18.4 65.2 39 4.5 40
22:45 1020 30.12 849 25.07 18.1 64.5 40 4.5 40.1
22:50 1020 30.12 849 25.07 17.8 64.1 40 4.3 39.7
22:55 1020 30.12 849 25.07 17.7 63.9 41 4.3 39.7
23:00 1020 30.12 849 25.07 17.5 63.6 41 4.2 39.5
23:05 1020 30.12 849 25.07 17.9 64.3 37 3 37.3
23:10 1020 30.12 849 25.07 18.5 65.2 36 3.4 38.2
23:15 1020 30.12 849 25.07 18.5 65.3 36 3.2 37.7
23:20 1020 30.12 849 25.07 18.6 65.5 36 3.6 38.5
23:25 1020 30.12 849 25.07 18.6 65.4 36 3.2 37.8
23:30 1020 30.12 849 25.07 18.5 65.2 35 3 37.5
23:35 1020 30.12 849 25.07 18.5 65.3 36 3.2 37.7
23:40 1020 30.12 849 25.07 18.3 64.9 37 3.5 38.2
23:45 1020 30.12 849 25.07 17.7 63.8 41 4.3 39.8
23:50 1020 30.12 849 25.07 17.3 63.2 38 3.2 37.7
23:55 1020 30.12 849 25.07 17.4 63.3 40 3.9 39
24:00 1020 30.12 849 25.07 17.1 62.8 41 3.9 39